Byron, Wisconsin
Current Conditions -  °F | °C
As of 1:53 PM on Monday 24 Nov 2014 (Local Time) from KFLD Reporting Station
Light Snow Light Snow  
Wind Chill: 22°   Ceiling: 1100
Heat Index: 33°   Visibility: 0.75mi
Dew Point: 30°   Wind: 20mph
Humidity: 89%   Direction: 270°W
Pressure: 29.2"   Gusts: 26mph
Location:  43.65°N, 88.45°W
Report Text: KFLD 241953Z AUTO 27017G23KT 3/4SM -SN BR FEW007 OVC011 01/M01 A2920 RMK AO2 RAE1859SNB1859 SLP895 P0003 T00061011
Loading
Personal Weather Stations






























Interactive Weather Map New forecast layout! Learn more

10-Day Weather Forecast

Advertisements
Track Severe Weather on mobile